createdAt,value
2019-01-24T00:02:17.163Z,39.93
2019-01-24T00:04:45.505Z,37.00
2019-01-24T00:07:13.114Z,32.60
2019-01-24T00:09:41.458Z,35.57
2019-01-24T00:12:09.062Z,38.33
2019-01-24T00:14:37.416Z,33.50
2019-01-24T00:17:04.990Z,35.40
2019-01-24T00:19:33.362Z,43.47
2019-01-24T00:22:00.940Z,40.63
2019-01-24T00:24:29.770Z,38.40
2019-01-24T00:26:57.346Z,37.23
2019-01-24T00:29:24.925Z,35.50
2019-01-24T00:31:52.529Z,41.30
2019-01-24T00:34:23.300Z,44.08
2019-01-24T00:36:47.719Z,39.93
2019-01-24T00:39:15.294Z,42.70
2019-01-24T00:41:43.637Z,44.78
2019-01-24T00:44:11.238Z,41.00
2019-01-24T00:46:39.577Z,41.43
2019-01-24T00:49:07.555Z,36.43
2019-01-24T00:51:35.139Z,36.20
2019-01-24T00:54:03.490Z,38.10
2019-01-24T00:56:31.095Z,34.53
2019-01-24T00:58:59.446Z,38.88
2019-01-24T01:01:27.095Z,34.97
2019-01-24T01:03:54.668Z,43.60
2019-01-24T01:06:22.254Z,40.13
2019-01-24T01:08:50.622Z,42.15
2019-01-24T01:11:18.466Z,38.90
2019-01-24T01:13:46.067Z,36.07
2019-01-24T01:16:13.987Z,38.77
2019-01-24T01:18:41.574Z,43.00
2019-01-24T01:21:09.167Z,42.63
2019-01-24T01:23:37.515Z,50.40
2019-01-24T01:26:05.120Z,43.57
2019-01-24T01:28:32.698Z,39.33
2019-01-24T01:31:00.274Z,36.20
2019-01-24T01:33:27.878Z,39.10
2019-01-24T01:35:56.223Z,42.00
2019-01-24T01:38:24.205Z,39.53
2019-01-24T01:40:51.787Z,45.10
2019-01-24T01:43:19.366Z,46.90
2019-01-24T01:45:46.976Z,39.90
2019-01-24T01:48:14.548Z,39.67
2019-01-24T01:50:42.157Z,38.60
2019-01-24T01:53:09.737Z,48.78
2019-01-24T01:55:37.313Z,41.30
2019-01-24T01:58:04.918Z,34.80
2019-01-24T02:00:33.264Z,40.97
2019-01-24T02:03:00.903Z,40.03
2019-01-24T02:05:29.214Z,38.83
2019-01-24T02:07:56.796Z,42.03
2019-01-24T02:10:24.412Z,47.92
2019-01-24T02:12:51.976Z,41.27
2019-01-24T02:15:19.873Z,43.77
2019-01-24T02:17:47.451Z,38.80
2019-01-24T02:20:15.921Z,50.30
2019-01-24T02:22:43.399Z,41.63
2019-01-24T02:25:11.752Z,43.07
2019-01-24T02:27:39.354Z,41.40
2019-01-24T02:30:16.144Z,39.43
2019-01-24T02:32:43.773Z,46.93
2019-01-24T02:35:11.349Z,43.47
2019-01-24T02:37:39.704Z,40.70
2019-01-24T02:40:07.325Z,44.63
2019-01-24T02:42:35.313Z,50.67
2019-01-24T02:45:02.939Z,44.13
2019-01-24T02:47:31.273Z,38.67
2019-01-24T02:49:58.850Z,43.30
2019-01-24T02:52:26.452Z,53.53
2019-01-24T02:54:54.064Z,45.30
2019-01-24T02:57:21.632Z,47.33
2019-01-24T02:59:49.219Z,43.10
2019-01-24T03:02:17.560Z,31.87
2019-01-24T03:04:45.173Z,43.70
2019-01-24T03:07:12.744Z,35.53
2019-01-24T03:09:40.357Z,46.10
2019-01-24T03:12:07.950Z,44.87
2019-01-24T03:14:35.536Z,45.50
2019-01-24T03:17:03.136Z,47.00
2019-01-24T03:19:30.723Z,50.83
2019-01-24T03:21:59.379Z,48.87
2019-01-24T03:24:26.960Z,46.27
2019-01-24T03:26:54.540Z,55.85
2019-01-24T03:29:22.910Z,43.70
2019-01-24T03:31:51.263Z,51.40
2019-01-24T03:34:18.870Z,52.43
2019-01-24T03:36:46.449Z,43.03
2019-01-24T03:39:14.022Z,45.80
2019-01-24T03:41:41.628Z,48.10
2019-01-24T03:44:09.210Z,44.30
2019-01-24T03:46:36.842Z,51.90
2019-01-24T03:49:04.425Z,45.13
2019-01-24T03:51:32.770Z,54.80
2019-01-24T03:54:00.379Z,52.30
2019-01-24T03:56:28.291Z,48.67
2019-01-24T03:58:56.464Z,49.10
2019-01-24T04:01:24.043Z,45.53
2019-01-24T04:03:51.623Z,51.10
2019-01-24T04:06:20.580Z,51.37
2019-01-24T04:08:48.216Z,52.53
2019-01-24T04:11:15.771Z,46.27
2019-01-24T04:13:43.349Z,52.93
2019-01-24T04:16:10.924Z,47.67
2019-01-24T04:18:38.529Z,51.60
2019-01-24T04:21:06.870Z,49.97
2019-01-24T04:23:34.502Z,50.57
2019-01-24T04:26:02.073Z,48.90
2019-01-24T04:28:29.652Z,49.67
2019-01-24T04:30:57.263Z,48.87
2019-01-24T04:33:25.602Z,47.43
2019-01-24T04:35:54.488Z,46.63
2019-01-24T04:38:22.062Z,54.60
2019-01-24T04:40:49.640Z,49.53
2019-01-24T04:43:17.247Z,51.67
2019-01-24T04:45:44.828Z,54.10
2019-01-24T04:48:12.807Z,57.47
2019-01-24T04:50:40.378Z,55.70
2019-01-24T04:53:07.958Z,55.07
2019-01-24T04:55:35.557Z,65.85
2019-01-24T04:58:03.140Z,60.40
2019-01-24T05:00:30.775Z,61.27
2019-01-24T05:02:58.354Z,59.37
2019-01-24T05:05:27.956Z,53.07
2019-01-24T05:07:53.537Z,53.47
2019-01-24T05:10:21.881Z,54.00
2019-01-24T05:12:49.461Z,52.73
2019-01-24T05:15:17.062Z,55.73
2019-01-24T05:17:44.675Z,57.40
2019-01-24T05:20:12.262Z,51.67
2019-01-24T05:22:40.667Z,64.85
2019-01-24T05:25:08.256Z,60.40
2019-01-24T05:27:35.832Z,62.30
2019-01-24T05:30:03.459Z,54.73
2019-01-24T05:32:31.548Z,64.60
2019-01-24T05:34:59.135Z,58.13
2019-01-24T05:37:26.733Z,59.63
2019-01-24T05:39:55.077Z,52.37
2019-01-24T05:42:22.707Z,56.50
2019-01-24T05:44:50.286Z,55.80
2019-01-24T05:47:17.862Z,49.33
2019-01-24T05:49:45.468Z,63.90
2019-01-24T05:52:19.433Z,65.25
2019-01-24T05:54:41.430Z,54.13
2019-01-24T05:57:09.324Z,61.97
2019-01-24T05:59:36.908Z,55.03
2019-01-24T06:02:04.509Z,54.60
2019-01-24T06:04:32.089Z,59.73
2019-01-24T06:06:59.703Z,52.83
2019-01-24T06:09:27.278Z,52.67
2019-01-24T06:11:55.620Z,57.50
2019-01-24T06:14:23.222Z,56.30
2019-01-24T06:16:50.805Z,56.80
2019-01-24T06:19:18.421Z,50.57
2019-01-24T06:21:46.053Z,51.43
2019-01-24T06:24:13.603Z,64.80
2019-01-24T06:26:41.210Z,61.60
2019-01-24T06:29:09.153Z,58.90
2019-01-24T06:31:36.773Z,59.27
2019-01-24T06:34:04.351Z,56.67
2019-01-24T06:36:31.935Z,49.13
2019-01-24T06:38:59.556Z,52.67
2019-01-24T06:41:27.903Z,47.50
2019-01-24T06:43:55.510Z,47.87
2019-01-24T06:46:23.090Z,50.17
2019-01-24T06:48:50.676Z,54.43
2019-01-24T06:51:18.536Z,55.40
2019-01-24T06:53:46.123Z,65.62
2019-01-24T06:56:13.762Z,58.97
2019-01-24T06:58:41.351Z,56.67
2019-01-24T07:01:08.945Z,57.60
2019-01-24T07:03:37.302Z,56.80
2019-01-24T07:06:04.894Z,58.03
2019-01-24T07:08:32.502Z,67.40
2019-01-24T07:11:00.080Z,59.30
2019-01-24T07:13:27.657Z,62.63
2019-01-24T07:15:56.033Z,60.57
2019-01-24T07:18:23.613Z,54.97
2019-01-24T07:20:51.237Z,57.00
2019-01-24T07:23:18.810Z,55.60
2019-01-24T07:25:47.154Z,69.28
2019-01-24T07:28:14.755Z,59.23
2019-01-24T07:30:43.111Z,59.53
2019-01-24T07:33:11.087Z,56.07
2019-01-24T07:35:38.668Z,58.17
2019-01-24T07:38:07.016Z,61.53
2019-01-24T07:40:34.623Z,61.63
2019-01-24T07:43:02.967Z,59.50
2019-01-24T07:45:36.119Z,60.10
2019-01-24T07:48:03.698Z,67.85
2019-01-24T07:50:31.282Z,73.60
2019-01-24T07:52:58.887Z,58.73
2019-01-24T07:55:26.471Z,59.27
2019-01-24T07:57:54.081Z,59.03
2019-01-24T08:00:24.988Z,57.90
2019-01-24T08:02:52.566Z,59.17
2019-01-24T08:05:20.166Z,53.07
2019-01-24T08:07:48.505Z,64.83
2019-01-24T08:10:18.826Z,57.90
2019-01-24T08:12:46.405Z,71.43
2019-01-24T08:15:19.573Z,69.80
2019-01-24T08:17:47.177Z,61.63
2019-01-24T08:20:15.533Z,62.03
2019-01-24T08:22:43.163Z,58.93
2019-01-24T08:25:11.468Z,71.00
2019-01-24T08:27:39.046Z,59.77
2019-01-24T08:30:15.494Z,74.95
2019-01-24T08:32:43.082Z,70.53
2019-01-24T08:35:10.746Z,75.50
2019-01-24T08:37:38.329Z,65.57
2019-01-24T08:40:08.583Z,63.92
2019-01-24T08:42:36.176Z,58.53
2019-01-24T08:45:03.763Z,62.20
2019-01-24T08:47:32.141Z,58.83
2019-01-24T08:50:00.491Z,54.57
2019-01-24T08:52:28.070Z,56.43
2019-01-24T08:54:56.153Z,60.80
2019-01-24T08:57:24.504Z,59.53
2019-01-24T08:59:52.589Z,54.83
2019-01-24T09:02:20.171Z,63.23
2019-01-24T09:04:48.517Z,71.30
2019-01-24T09:07:16.116Z,73.00
2019-01-24T09:09:44.460Z,70.68
2019-01-24T09:12:12.077Z,70.00
2019-01-24T09:14:39.656Z,64.50
2019-01-24T09:17:07.249Z,62.80
2019-01-24T09:19:34.836Z,67.20
2019-01-24T09:22:03.187Z,58.33
2019-01-24T09:24:30.805Z,65.80
2019-01-24T09:26:58.392Z,64.63
2019-01-24T09:29:26.270Z,67.53
2019-01-24T09:31:53.878Z,68.67
2019-01-24T09:34:21.471Z,61.00
2019-01-24T09:36:49.483Z,73.07
2019-01-24T09:39:17.098Z,64.33
2019-01-24T09:41:45.420Z,74.07
2019-01-24T09:44:13.027Z,64.17
2019-01-24T09:46:40.603Z,72.65
2019-01-24T09:49:08.213Z,66.93
2019-01-24T09:51:35.794Z,63.33
2019-01-24T09:54:04.150Z,80.90
2019-01-24T09:56:31.769Z,75.65
2019-01-24T09:58:59.343Z,73.90
2019-01-24T10:01:27.079Z,68.53
2019-01-24T10:03:55.417Z,65.27
2019-01-24T10:06:22.987Z,68.23
2019-01-24T10:08:50.598Z,69.00
2019-01-24T10:11:23.504Z,62.87
2019-01-24T10:13:45.805Z,63.77
2019-01-24T10:16:13.384Z,70.67
2019-01-24T10:18:40.956Z,62.13
2019-01-24T10:21:08.583Z,60.73
2019-01-24T10:23:36.931Z,63.90
2019-01-24T10:26:04.546Z,61.97
2019-01-24T10:28:32.126Z,62.00
2019-01-24T10:30:59.701Z,64.03
2019-01-24T10:33:27.303Z,64.93
2019-01-24T10:35:55.645Z,63.33
2019-01-24T10:38:23.252Z,64.37
2019-01-24T10:40:51.595Z,70.13
2019-01-24T10:43:19.179Z,63.77
2019-01-24T10:45:47.557Z,72.90
2019-01-24T10:48:15.900Z,74.03
2019-01-24T10:50:43.477Z,67.37
2019-01-24T10:53:11.080Z,66.13
2019-01-24T10:55:39.426Z,69.77
2019-01-24T10:58:07.009Z,56.80
2019-01-24T11:00:38.407Z,66.03
2019-01-24T11:03:05.984Z,56.10
2019-01-24T11:05:33.565Z,66.23
2019-01-24T11:08:01.169Z,63.37
2019-01-24T11:10:30.182Z,71.37
2019-01-24T11:12:57.839Z,62.23
2019-01-24T11:15:25.417Z,73.90
2019-01-24T11:17:53.002Z,65.27
2019-01-24T11:20:20.607Z,94.37
2019-01-24T11:22:48.187Z,67.73
2019-01-24T11:25:15.839Z,64.70
2019-01-24T11:27:43.414Z,61.87
2019-01-24T11:30:11.003Z,69.90
2019-01-24T11:32:38.598Z,58.17
2019-01-24T11:35:06.942Z,65.47
2019-01-24T11:37:34.552Z,60.33
2019-01-24T11:40:02.126Z,65.85
2019-01-24T11:42:29.751Z,63.60
2019-01-24T11:47:37.309Z,61.17
2019-01-24T11:50:07.321Z,60.53
2019-01-24T11:52:34.898Z,63.30
2019-01-24T11:55:02.508Z,60.23
2019-01-24T11:57:30.075Z,60.67
2019-01-24T11:59:58.465Z,64.07
2019-01-24T12:02:26.809Z,74.12
2019-01-24T12:04:54.661Z,64.13
2019-01-24T12:07:22.260Z,66.33
2019-01-24T12:09:49.835Z,60.53
2019-01-24T12:12:17.461Z,62.83
2019-01-24T12:14:45.030Z,59.67
2019-01-24T12:17:12.614Z,56.07
2019-01-24T12:19:40.987Z,58.97
2019-01-24T12:22:09.338Z,56.83
2019-01-24T12:24:36.962Z,61.03
2019-01-24T12:27:04.537Z,64.57
2019-01-24T12:29:32.115Z,58.33
2019-01-24T12:31:59.721Z,52.27
2019-01-24T12:34:28.058Z,54.20
2019-01-24T12:36:56.042Z,54.43
2019-01-24T12:39:23.612Z,52.67
2019-01-24T12:41:51.556Z,52.17
2019-01-24T12:44:19.158Z,53.47
2019-01-24T12:46:47.513Z,53.53
2019-01-24T12:49:15.399Z,59.77
2019-01-24T12:51:42.982Z,61.47
2019-01-24T12:54:11.324Z,64.57
2019-01-24T12:56:38.918Z,57.43
2019-01-24T12:59:07.261Z,56.00
2019-01-24T13:01:35.250Z,55.90
2019-01-24T13:04:02.830Z,56.40
2019-01-24T13:06:31.175Z,55.27
2019-01-24T13:08:58.769Z,49.80
2019-01-24T13:11:27.410Z,56.80
2019-01-24T13:13:55.027Z,53.37
2019-01-24T13:16:23.371Z,57.90
2019-01-24T13:18:50.945Z,57.80
2019-01-24T13:21:18.543Z,66.67
2019-01-24T13:23:46.124Z,64.23
2019-01-24T13:26:13.748Z,54.87
2019-01-24T13:28:42.083Z,56.43
2019-01-24T13:31:09.665Z,54.87
2019-01-24T13:33:37.261Z,55.37
2019-01-24T13:36:04.832Z,65.90
2019-01-24T13:38:32.517Z,60.55
2019-01-24T13:41:00.139Z,64.70
2019-01-24T13:43:28.507Z,62.38
2019-01-24T13:45:56.076Z,54.53
2019-01-24T13:48:24.418Z,57.40
2019-01-24T13:50:52.071Z,50.00
2019-01-24T13:53:19.656Z,56.23
2019-01-24T13:55:47.232Z,54.20
2019-01-24T13:58:14.828Z,53.70
2019-01-24T14:00:42.405Z,52.03
2019-01-24T14:03:15.563Z,55.80
2019-01-24T14:05:43.899Z,53.70
2019-01-24T14:08:11.476Z,61.75
2019-01-24T14:10:39.120Z,63.07
2019-01-24T14:13:06.647Z,56.97
2019-01-24T14:15:34.220Z,56.03
2019-01-24T14:18:01.835Z,53.67
2019-01-24T14:20:29.414Z,51.87
2019-01-24T14:22:57.749Z,56.57
2019-01-24T14:25:25.358Z,53.53
2019-01-24T14:27:53.700Z,54.90
2019-01-24T14:30:21.284Z,54.07
2019-01-24T14:32:49.751Z,55.97
2019-01-24T14:35:17.327Z,51.13
2019-01-24T14:37:45.665Z,62.47
2019-01-24T14:40:13.913Z,52.17
2019-01-24T14:42:40.842Z,57.97
2019-01-24T14:45:17.414Z,52.80
2019-01-24T14:47:45.751Z,56.90
2019-01-24T14:50:13.326Z,49.93
2019-01-24T14:52:40.922Z,54.03
2019-01-24T14:55:08.496Z,55.47
2019-01-24T14:57:36.160Z,65.80
2019-01-24T15:00:03.751Z,62.90
2019-01-24T15:02:31.323Z,59.70
2019-01-24T15:04:59.198Z,69.43
2019-01-24T15:07:26.768Z,69.37
2019-01-24T15:09:54.394Z,60.33
2019-01-24T15:14:58.693Z,56.23
2019-01-24T15:17:27.040Z,58.07
2019-01-24T15:19:54.614Z,63.72
2019-01-24T15:22:22.221Z,53.37
2019-01-24T15:24:49.795Z,56.50
2019-01-24T15:27:17.461Z,58.87
2019-01-24T15:29:45.043Z,57.77
2019-01-24T15:32:12.620Z,58.90
2019-01-24T15:34:40.214Z,52.07
2019-01-24T15:37:08.557Z,59.10
2019-01-24T15:39:36.182Z,56.77
2019-01-24T15:42:03.749Z,61.88
2019-01-24T15:44:31.327Z,54.33
2019-01-24T15:46:58.921Z,53.07
2019-01-24T15:49:27.270Z,57.63
2019-01-24T15:51:56.030Z,54.67
2019-01-24T15:54:22.481Z,66.62
2019-01-24T15:56:50.060Z,64.62
2019-01-24T15:59:17.650Z,57.23
2019-01-24T16:01:46.017Z,54.00
2019-01-24T16:04:19.791Z,57.07
2019-01-24T16:06:41.231Z,56.50
2019-01-24T16:09:08.812Z,57.10
2019-01-24T16:11:37.186Z,62.73
2019-01-24T16:14:05.017Z,58.10
2019-01-24T16:16:32.611Z,53.40
2019-01-24T16:19:00.204Z,61.10
2019-01-24T16:21:28.295Z,61.77
2019-01-24T16:23:55.885Z,62.37
2019-01-24T16:26:23.456Z,71.60
2019-01-24T16:28:51.064Z,56.53
2019-01-24T16:31:18.663Z,69.17
2019-01-24T16:33:46.284Z,63.10
2019-01-24T16:36:13.860Z,61.60
2019-01-24T16:38:41.447Z,66.10
2019-01-24T16:41:09.046Z,61.47
2019-01-24T16:43:36.620Z,59.03
2019-01-24T16:46:04.278Z,65.70
2019-01-24T16:48:32.642Z,61.50
2019-01-24T16:51:00.223Z,55.47
2019-01-24T16:53:28.590Z,54.67
2019-01-24T16:55:56.168Z,70.50
2019-01-24T16:58:24.557Z,62.23
2019-01-24T17:00:52.893Z,63.17
2019-01-24T17:03:20.468Z,58.10
2019-01-24T17:05:48.422Z,58.37
2019-01-24T17:08:16.731Z,60.13
2019-01-24T17:10:43.837Z,63.57
2019-01-24T17:13:11.473Z,55.87
2019-01-24T17:15:39.780Z,56.43
2019-01-24T17:18:07.362Z,55.03
2019-01-24T17:20:34.982Z,60.43
2019-01-24T17:23:02.553Z,54.17
2019-01-24T17:25:33.091Z,58.87
2019-01-24T17:28:01.189Z,66.93
2019-01-24T17:30:28.769Z,61.23
2019-01-24T17:32:57.111Z,63.03
2019-01-24T17:35:24.717Z,61.53
2019-01-24T17:37:53.055Z,59.77
2019-01-24T17:40:26.507Z,55.13
2019-01-24T17:42:54.085Z,62.53
2019-01-24T17:45:21.658Z,61.90
2019-01-24T17:47:49.254Z,61.50
2019-01-24T17:50:16.832Z,58.37
2019-01-24T17:52:45.598Z,68.77
2019-01-24T17:55:13.171Z,61.03
2019-01-24T17:57:40.737Z,57.60
2019-01-24T18:00:08.332Z,56.70
2019-01-24T18:02:35.911Z,57.77
2019-01-24T18:05:03.917Z,67.67
2019-01-24T18:07:31.486Z,57.93
2019-01-24T18:09:59.134Z,67.17
2019-01-24T18:12:26.735Z,57.33
2019-01-24T18:14:55.078Z,58.00
2019-01-24T18:17:22.701Z,59.47
2019-01-24T18:19:50.276Z,51.17
2019-01-24T18:22:17.857Z,56.23
2019-01-24T18:24:45.453Z,63.40
2019-01-24T18:27:13.795Z,61.40
2019-01-24T18:29:41.406Z,60.73
2019-01-24T18:32:09.745Z,63.37
2019-01-24T18:34:37.312Z,66.37
2019-01-24T18:37:04.919Z,57.90
2019-01-24T18:39:32.489Z,65.87
2019-01-24T18:42:00.172Z,62.40
2019-01-24T18:44:27.742Z,60.23
2019-01-24T18:46:55.311Z,67.43
2019-01-24T18:49:22.918Z,61.83
2019-01-24T18:51:51.260Z,61.43
2019-01-24T18:54:18.887Z,67.03
2019-01-24T18:56:46.458Z,74.72
2019-01-24T18:59:14.036Z,61.20
2019-01-24T19:01:41.635Z,60.13
2019-01-24T19:04:09.981Z,59.43
2019-01-24T19:06:38.398Z,61.30
2019-01-24T19:09:06.746Z,57.93
2019-01-24T19:11:34.322Z,57.57
2019-01-24T19:14:01.958Z,69.20
2019-01-24T19:16:29.552Z,69.00
2019-01-24T19:18:57.213Z,68.87
2019-01-24T19:21:24.794Z,64.43
2019-01-24T19:23:53.146Z,65.17
2019-01-24T19:26:20.794Z,62.97
2019-01-24T19:28:48.357Z,65.67
2019-01-24T19:31:15.991Z,58.70
2019-01-24T19:33:43.638Z,66.62
2019-01-24T19:36:11.236Z,54.33
2019-01-24T19:38:38.845Z,62.53
2019-01-24T19:41:07.191Z,57.97
2019-01-24T19:43:34.848Z,56.87
2019-01-24T19:46:02.432Z,55.73
2019-01-24T19:48:30.003Z,59.53
2019-01-24T19:50:58.369Z,58.63
2019-01-24T19:53:25.947Z,59.17
2019-01-24T19:55:53.558Z,70.50
2019-01-24T19:58:21.138Z,68.73
2019-01-24T20:00:48.731Z,78.43
2019-01-24T20:03:17.098Z,77.35
2019-01-24T20:05:44.666Z,70.18
2019-01-24T20:08:12.318Z,68.78
2019-01-24T20:10:39.920Z,57.33
2019-01-24T20:13:08.298Z,58.20
2019-01-24T20:15:36.690Z,55.70
2019-01-24T20:18:04.298Z,59.90
2019-01-24T20:20:31.932Z,58.17
2019-01-24T20:22:59.570Z,65.93
2019-01-24T20:25:27.143Z,64.03
2019-01-24T20:27:54.787Z,66.57
2019-01-24T20:30:28.833Z,60.60
2019-01-24T20:32:56.437Z,58.40
2019-01-24T20:35:24.838Z,54.07
2019-01-24T20:37:53.201Z,51.20
2019-01-24T20:40:20.808Z,53.37
2019-01-24T20:42:48.476Z,54.03
2019-01-24T20:45:16.107Z,53.53
2019-01-24T20:47:46.483Z,51.40
2019-01-24T20:50:14.064Z,55.57
2019-01-24T20:52:41.781Z,57.87
2019-01-24T20:55:10.215Z,51.10
2019-01-24T20:57:37.816Z,52.20
2019-01-24T21:00:05.567Z,52.77
2019-01-24T21:02:33.147Z,56.50
2019-01-24T21:05:00.773Z,54.33
2019-01-24T21:07:28.419Z,54.27
2019-01-24T21:09:56.021Z,55.20
2019-01-24T21:12:24.433Z,56.50
2019-01-24T21:14:52.035Z,53.93
2019-01-24T21:17:19.642Z,56.03
2019-01-24T21:19:47.272Z,64.25
2019-01-24T21:22:14.905Z,60.23
2019-01-24T21:24:42.554Z,63.60
2019-01-24T21:27:10.149Z,51.20
2019-01-24T21:29:37.754Z,57.90
2019-01-24T21:32:05.394Z,64.77
2019-01-24T21:34:33.770Z,67.60
2019-01-24T21:37:02.006Z,67.97
2019-01-24T21:39:29.458Z,62.87
2019-01-24T21:41:57.067Z,59.80
2019-01-24T21:44:24.688Z,56.67
2019-01-24T21:46:52.291Z,60.03
2019-01-24T21:49:19.939Z,54.30
2019-01-24T21:51:47.536Z,56.53
2019-01-24T21:54:15.913Z,70.63
2019-01-24T21:56:44.322Z,71.03
2019-01-24T21:59:11.918Z,66.25
2019-01-24T22:01:39.601Z,55.27
2019-01-24T22:04:07.198Z,56.97
2019-01-24T22:06:34.802Z,58.87
2019-01-24T22:09:02.461Z,66.87
2019-01-24T22:11:30.108Z,72.10
2019-01-24T22:13:57.735Z,67.62
2019-01-24T22:16:25.335Z,57.30
2019-01-24T22:18:52.938Z,60.00
2019-01-24T22:21:21.330Z,62.43
2019-01-24T22:23:49.702Z,56.07
2019-01-24T22:26:17.326Z,60.80
2019-01-24T22:28:44.956Z,65.50
2019-01-24T22:31:12.558Z,60.20
2019-01-24T22:33:40.210Z,52.00
2019-01-24T22:36:08.181Z,70.32
2019-01-24T22:38:35.822Z,68.55
2019-01-24T22:41:03.415Z,61.40
2019-01-24T22:43:31.015Z,62.60
2019-01-24T22:45:59.423Z,60.73
2019-01-24T22:48:27.027Z,63.47
2019-01-24T22:50:54.660Z,57.00
2019-01-24T22:53:22.269Z,72.57
2019-01-24T22:55:50.205Z,62.73
2019-01-24T22:58:17.847Z,64.63
2019-01-24T23:00:48.356Z,58.27
2019-01-24T23:03:19.791Z,64.50
2019-01-24T23:05:48.154Z,60.17
2019-01-24T23:08:15.761Z,64.07
2019-01-24T23:10:43.400Z,72.60
2019-01-24T23:13:11.775Z,73.22
2019-01-24T23:15:40.191Z,72.43
2019-01-24T23:18:07.776Z,66.30
2019-01-24T23:20:35.373Z,61.67
2019-01-24T23:23:02.997Z,62.17
2019-01-24T23:25:30.589Z,61.30
2019-01-24T23:27:58.225Z,59.07
2019-01-24T23:30:25.825Z,75.03
2019-01-24T23:32:53.463Z,57.93
2019-01-24T23:35:21.084Z,60.70
2019-01-24T23:37:52.438Z,56.47
2019-01-24T23:40:16.388Z,58.43
2019-01-24T23:42:44.745Z,59.03
2019-01-24T23:45:12.341Z,58.50
2019-01-24T23:47:39.985Z,61.47
2019-01-24T23:50:08.405Z,57.73
2019-01-24T23:52:36.034Z,57.33
2019-01-24T23:55:04.419Z,57.27
2019-01-24T23:57:32.786Z,64.30
